Time;durP1;ratioP1;P1;durP2;ratioP2;P2;SDS_P1;SDS_P2;PMS_P1;PMS_P2;Temp;Humidity;BMP_temperature;BMP_pressure;BME280_temperature;BME280_humidity;BME280_pressure;Samples;Min_cycle;Max_cycle;Signal;HPM_P1;HPM_P2
2022/06/17 00:06:32;;;;;;;6.80;6.00;;;;;;;14.48;75.27;98797.45;434242;1266;107847;-41
2022/06/17 00:16:39;;;;;;;7.00;6.20;;;;;;;14.48;75.36;98800.36;434156;1267;96576;-42
2022/06/17 00:26:47;;;;;;;12.30;7.30;;;;;;;14.49;75.73;98801.27;434240;1267;110137;-40
2022/06/17 00:36:53;;;;;;;8.10;7.10;;;;;;;14.49;75.93;98809.05;434105;1266;107718;-40
2022/06/17 00:46:59;;;;;;;8.90;7.60;;;;;;;14.47;76.05;98812.38;434163;1267;96823;-41
2022/06/17 00:57:17;;;;;;;11.70;8.10;;;;;;;14.44;76.19;98822.45;434161;1267;108894;-40
2022/06/17 01:07:29;;;;;;;11.00;7.80;;;;;;;14.39;76.34;98830.73;434004;1267;96522;-40
2022/06/17 01:17:39;;;;;;;9.30;7.50;;;;;;;14.34;76.40;98832.52;434234;1267;108471;-41
2022/06/17 01:27:48;;;;;;;11.40;7.30;;;;;;;14.29;76.31;98849.12;435016;1255;108688;-40
2022/06/17 01:37:57;;;;;;;11.90;8.00;;;;;;;14.20;76.55;98860.92;434096;1267;96154;-41
2022/06/17 01:48:06;;;;;;;9.90;8.00;;;;;;;14.15;76.69;98868.94;433667;1267;631124;-41
2022/06/17 01:58:23;;;;;;;14.30;8.50;;;;;;;14.06;76.59;98869.15;434151;1267;96154;-42
2022/06/17 02:08:30;;;;;;;13.40;8.40;;;;;;;13.98;76.70;98876.54;434175;1266;109492;-45
2022/06/17 02:18:38;;;;;;;10.10;7.90;;;;;;;13.82;76.71;98892.79;434362;1267;108897;-42
2022/06/17 02:28:46;;;;;;;11.30;8.40;;;;;;;13.72;76.85;98894.50;434212;1268;96554;-42
2022/06/17 02:38:53;;;;;;;13.20;9.40;;;;;;;13.66;76.99;98909.30;434157;1268;108812;-41
2022/06/17 02:49:04;;;;;;;9.60;8.50;;;;;;;13.62;76.89;98918.42;434240;1268;96179;-43
2022/06/17 02:59:10;;;;;;;14.60;8.40;;;;;;;13.61;76.98;98922.50;434051;1267;109699;-40
2022/06/17 03:09:16;;;;;;;12.70;9.00;;;;;;;13.57;76.92;98930.32;434239;1267;108780;-41
2022/06/17 03:19:24;;;;;;;10.70;8.40;;;;;;;14.25;76.78;98927.56;434182;1266;96133;-42
2022/06/17 03:29:34;;;;;;;11.50;7.40;;;;;;;15.95;75.59;98932.48;434295;1267;108793;-41
2022/06/17 03:39:44;;;;;;;12.00;6.40;;;;;;;16.52;74.24;98952.69;434157;1266;108758;-41
2022/06/17 03:49:50;;;;;;;8.50;7.20;;;;;;;15.51;73.80;98958.91;434394;1267;95688;-42
2022/06/17 03:59:55;;;;;;;7.20;6.20;;;;;;;14.59;74.47;98980.56;434233;1266;110157;-41
2022/06/17 04:10:02;;;;;;;7.90;5.30;;;;;;;14.19;75.08;98991.17;434098;1265;108813;-40
2022/06/17 04:20:33;;;;;;;6.80;5.90;;;;;;;14.07;75.53;98996.48;434210;1266;96586;-43
2022/06/17 04:40:46;;;;;;;7.90;5.50;;;;;;;14.02;76.00;99024.27;434179;1267;95727;-41
2022/06/17 04:50:53;;;;;;;10.60;5.60;;;;;;;13.96;76.29;99036.19;434177;1267;108673;-41
2022/06/17 05:01:01;;;;;;;14.40;6.30;;;;;;;14.25;76.49;99046.68;434040;1266;107778;-41
2022/06/17 05:11:14;;;;;;;6.00;5.40;;;;;;;15.52;76.00;99050.83;434245;1267;95694;-42
2022/06/17 05:21:23;;;;;;;12.60;6.20;;;;;;;15.37;75.47;99067.89;434143;1267;108713;-41
2022/06/17 05:31:31;;;;;;;5.80;5.10;;;;;;;15.02;75.66;99078.60;434124;1266;108939;-42
2022/06/17 05:41:38;;;;;;;7.70;5.30;;;;;;;14.97;75.77;99075.67;434096;1266;96152;-41
2022/06/17 05:51:45;;;;;;;7.10;4.50;;;;;;;14.90;75.72;99086.42;434255;1267;109751;-42
2022/06/17 06:01:53;;;;;;;6.00;4.70;;;;;;;15.08;75.72;99095.72;434023;1267;108838;-41
2022/06/17 06:12:00;;;;;;;9.50;5.70;;;;;;;15.22;76.02;99104.53;434264;1267;95687;-42
2022/06/17 06:22:08;;;;;;;8.80;6.80;;;;;;;16.37;75.72;99108.25;434134;1266;109592;-41
2022/06/17 06:32:15;;;;;;;12.60;6.20;;;;;;;17.17;75.09;99113.29;434233;1267;108780;-41
2022/06/17 06:42:24;;;;;;;6.40;5.00;;;;;;;18.27;74.32;99113.52;434123;1266;97891;-42
2022/06/17 06:52:32;;;;;;;10.30;5.20;;;;;;;19.21;73.05;99109.67;434201;1266;111066;-40
2022/06/17 07:02:40;;;;;;;8.40;5.00;;;;;;;19.99;72.27;99110.38;434232;1266;109028;-42
2022/06/17 07:12:47;;;;;;;6.20;4.20;;;;;;;19.83;70.54;99100.05;434118;1265;97927;-40
2022/06/17 07:22:53;;;;;;;14.00;5.10;;;;;;;20.61;70.18;99104.92;434218;1267;111512;-43
2022/06/17 07:33:00;;;;;;;8.70;4.00;;;;;;;20.89;67.79;99109.01;434086;1267;108514;-42
2022/06/17 07:43:06;;;;;;;6.00;3.50;;;;;;;19.81;66.08;99123.56;434400;1266;96676;-40
2022/06/17 07:53:14;;;;;;;5.60;3.90;;;;;;;19.75;66.48;99124.42;434213;1267;111318;-40
2022/06/17 08:03:22;;;;;;;4.20;3.60;;;;;;;19.73;65.87;99130.38;434162;1267;109339;-39
2022/06/17 08:13:30;;;;;;;10.00;4.20;;;;;;;19.89;66.27;99145.67;434121;1267;98577;-39
2022/06/17 08:23:38;;;;;;;9.00;4.10;;;;;;;20.26;65.13;99149.38;434199;1267;109062;-38
2022/06/17 08:33:46;;;;;;;6.90;4.10;;;;;;;20.38;64.72;99158.77;434193;1266;97990;-40
2022/06/17 08:44:06;;;;;;;4.80;3.50;;;;;;;20.86;64.07;99163.22;434190;1266;110239;-39
2022/06/17 08:54:24;;;;;;;6.50;2.50;;;;;;;21.11;63.38;99166.73;434197;1266;107757;-39
2022/06/17 09:04:34;;;;;;;3.20;2.10;;;;;;;21.46;61.96;99170.51;434215;1266;96674;-43
2022/06/17 09:14:40;;;;;;;1.90;1.50;;;;;;;21.02;60.14;99182.75;434131;1266;108759;-40
2022/06/17 09:24:48;;;;;;;1.30;1.20;;;;;;;21.21;58.90;99196.81;434079;1267;98384;-39
2022/06/17 09:34:53;;;;;;;2.40;1.00;;;;;;;21.20;58.03;99206.66;434283;1267;111095;-43
2022/06/17 09:45:06;;;;;;;1.90;0.90;;;;;;;21.76;57.03;99208.29;434289;1267;108865;-41
2022/06/17 09:55:18;;;;;;;2.00;0.70;;;;;;;21.86;55.18;99209.47;434311;1266;96704;-39
2022/06/17 10:05:27;;;;;;;2.20;0.90;;;;;;;21.63;54.36;99216.54;434204;1267;110944;-43
2022/06/17 10:15:33;;;;;;;1.90;1.30;;;;;;;21.63;53.89;99207.33;434249;1266;107820;-41
2022/06/17 10:25:41;;;;;;;2.60;1.10;;;;;;;21.92;53.82;99207.59;434376;1266;98618;-42
2022/06/17 10:35:49;;;;;;;2.10;1.00;;;;;;;21.82;52.86;99206.13;434420;1267;111090;-40
2022/06/17 10:45:57;;;;;;;3.60;1.30;;;;;;;21.61;53.30;99196.46;434367;1267;108801;-41
2022/06/17 10:56:09;;;;;;;5.00;1.60;;;;;;;21.86;53.23;99196.54;434451;1266;97506;-40
2022/06/17 11:06:16;;;;;;;4.20;1.50;;;;;;;22.39;53.67;99196.66;434111;1267;111192;-40
2022/06/17 11:16:27;;;;;;;1.40;1.20;;;;;;;22.15;52.98;99202.77;434231;1266;108978;-40
2022/06/17 11:26:37;;;;;;;5.40;1.30;;;;;;;21.65;52.35;99199.02;434289;1266;96650;-42
2022/06/17 11:37:04;;;;;;;2.90;1.50;;;;;;;22.01;52.03;99195.31;434341;1266;110318;-41
2022/06/17 11:47:11;;;;;;;5.80;2.00;;;;;;;21.84;51.45;99206.52;434292;1266;108840;-42
2022/06/17 11:57:21;;;;;;;4.20;1.80;;;;;;;21.70;52.12;99213.06;433989;1267;97907;-41
2022/06/17 12:07:45;;;;;;;3.00;1.50;;;;;;;22.08;51.86;99207.52;434176;1267;110787;-41
2022/06/17 12:17:53;;;;;;;3.20;1.70;;;;;;;22.19;51.15;99210.42;434437;1266;109357;-40
2022/06/17 12:28:08;;;;;;;2.20;1.30;;;;;;;22.30;51.10;99202.20;434213;1267;98041;-40
2022/06/17 12:38:14;;;;;;;5.80;1.80;;;;;;;22.48;50.67;99202.83;434114;1267;110774;-44
2022/06/17 12:48:22;;;;;;;5.60;2.60;;;;;;;22.31;50.45;99200.08;434214;1267;108790;-43
2022/06/17 12:58:40;;;;;;;3.70;2.00;;;;;;;22.78;50.70;99188.66;434161;1267;97049;-40
2022/06/17 13:18:51;;;;;;;6.00;1.80;;;;;;;22.78;49.32;99186.29;434114;1268;96953;-39
2022/06/17 13:28:56;;;;;;;5.40;2.30;;;;;;;22.32;49.51;99187.27;434234;1267;111015;-41
2022/06/17 13:39:06;;;;;;;5.60;1.60;;;;;;;22.09;50.16;99184.14;434253;1267;109550;-40
2022/06/17 13:49:11;;;;;;;4.10;1.80;;;;;;;21.85;50.55;99187.17;433196;1266;1491814;-41
2022/06/17 13:59:35;;;;;;;4.20;1.70;;;;;;;21.88;51.25;99177.88;434163;1268;111006;-40
2022/06/17 14:19:51;;;;;;;;;;;;;;;22.17;50.92;99166.14;434436;1267;97107;-41
2022/06/17 14:30:28;;;;;;;6.30;2.40;;;;;;;22.24;50.60;99162.62;434297;1267;111143;-41
2022/06/17 14:51:04;;;;;;;4.10;1.60;;;;;;;22.81;48.84;99151.13;434093;1266;97900;-41
2022/06/17 15:01:16;;;;;;;3.20;2.00;;;;;;;22.74;47.97;99147.25;434153;1267;110912;-40
2022/06/17 15:11:24;;;;;;;4.30;2.10;;;;;;;22.78;47.82;99143.63;434352;1267;108587;-40
2022/06/17 15:21:30;;;;;;;;;;;;;;;22.88;47.54;99149.35;434323;1267;97932;-42
2022/06/17 15:41:50;;;;;;;6.10;2.20;;;;;;;22.57;47.75;99148.34;434217;1267;109140;-41
2022/06/17 15:52:02;;;;;;;5.90;2.30;;;;;;;22.30;47.54;99147.50;434279;1266;97894;-41
2022/06/17 16:02:20;;;;;;;2.90;1.70;;;;;;;22.01;48.28;99146.95;434163;1268;110185;-42
2022/06/17 16:12:36;;;;;;;7.60;1.60;;;;;;;22.01;48.33;99142.10;434164;1268;109098;-41
2022/06/17 16:22:44;;;;;;;7.40;1.70;;;;;;;22.12;48.48;99147.20;434240;1266;97960;-42
2022/06/17 16:32:50;;;;;;;3.60;1.50;;;;;;;21.88;48.70;99155.86;434268;1268;110269;-46
2022/06/17 17:03:30;;;;;;;10.30;3.40;;;;;;;20.86;50.55;99168.91;434340;1268;111032;-43
2022/06/17 17:13:38;;;;;;;6.70;3.20;;;;;;;20.78;50.96;99169.36;434022;1267;108792;-44
2022/06/17 17:23:45;;;;;;;3.00;2.20;;;;;;;20.73;51.02;99168.98;434236;1267;97980;-41
2022/06/17 17:33:52;;;;;;;5.10;2.40;;;;;;;20.59;51.06;99172.17;434163;1266;111525;-42
2022/06/17 17:43:59;;;;;;;3.10;2.20;;;;;;;20.43;51.50;99182.14;434238;1267;109041;-42
2022/06/17 17:54:06;;;;;;;7.30;2.40;;;;;;;20.29;52.07;99185.21;434379;1267;97891;-41
2022/06/17 18:04:17;;;;;;;4.90;2.80;;;;;;;20.09;53.24;99182.61;434018;1267;111094;-42
2022/06/17 18:24:31;;;;;;;8.10;3.80;;;;;;;19.56;54.44;99189.15;434397;1268;97952;-44
2022/06/17 18:44:49;;;;;;;6.90;3.80;;;;;;;18.81;55.86;99183.92;434200;1268;108802;-42
2022/06/17 18:55:00;;;;;;;9.30;4.20;;;;;;;18.41;56.46;99190.16;434176;1268;97910;-43
2022/06/17 19:05:10;;;;;;;11.10;4.10;;;;;;;18.07;57.31;99196.96;434192;1266;109679;-40
2022/06/17 19:25:44;;;;;;;14.80;6.60;;;;;;;17.26;58.93;99219.61;434168;1268;97923;-41
2022/06/17 19:35:53;;;;;;;9.70;5.40;;;;;;;16.91;59.78;99228.79;434049;1267;108844;-41
2022/06/17 19:46:04;;;;;;;14.30;10.30;;;;;;;16.62;60.38;99241.30;434121;1268;97404;-42
2022/06/17 19:56:15;;;;;;;19.60;12.20;;;;;;;16.38;61.20;99238.52;433894;1267;110968;-43
2022/06/17 20:06:23;;;;;;;29.10;16.30;;;;;;;16.28;61.83;99243.54;434274;1268;108818;-43
2022/06/17 20:16:29;;;;;;;22.70;14.90;;;;;;;16.14;62.05;99248.61;434334;1268;96670;-40
2022/06/17 20:37:01;;;;;;;23.70;13.30;;;;;;;15.78;63.05;99250.05;434066;1268;98015;-41
2022/06/17 21:08:00;;;;;;;19.40;10.80;;;;;;;15.45;64.19;99248.07;434239;1266;97909;-43
2022/06/17 21:18:05;;;;;;;17.40;9.40;;;;;;;15.46;64.58;99250.42;434112;1267;110714;-40
2022/06/17 21:38:20;;;;;;;21.40;10.50;;;;;;;15.36;65.12;99254.92;434234;1266;96676;-42
2022/06/17 21:48:27;;;;;;;14.80;8.00;;;;;;;15.28;65.24;99253.37;434281;1267;108792;-41
2022/06/17 21:58:37;;;;;;;13.40;8.60;;;;;;;15.33;65.44;99242.41;434162;1267;97996;-41
2022/06/17 22:08:46;;;;;;;9.00;7.40;;;;;;;15.28;65.64;99244.69;434099;1267;111131;-41
2022/06/17 22:18:54;;;;;;;17.50;9.10;;;;;;;15.10;65.89;99241.88;434378;1266;109031;-40
2022/06/17 22:29:00;;;;;;;13.50;8.50;;;;;;;14.98;66.05;99239.30;434302;1267;97776;-41
2022/06/17 22:39:07;;;;;;;19.10;9.20;;;;;;;14.92;66.38;99240.59;433984;1268;108764;-41
2022/06/17 22:49:12;;;;;;;14.20;10.10;;;;;;;14.83;66.57;99241.65;434104;1266;97032;-44
2022/06/17 22:59:19;;;;;;;22.90;13.30;;;;;;;14.59;66.81;99241.65;434095;1266;111140;-40
2022/06/17 23:09:27;;;;;;;19.70;12.70;;;;;;;14.33;67.13;99234.51;434078;1267;108833;-40
2022/06/17 23:29:59;;;;;;;15.80;11.20;;;;;;;14.11;67.91;99224.53;434221;1266;111164;-42
2022/06/17 23:50:23;;;;;;;23.50;16.70;;;;;;;13.83;68.55;99227.30;434105;1267;97883;-40
